Time;durP1;ratioP1;P1;durP2;ratioP2;P2;SDS_P1;SDS_P2;PMS_P1;PMS_P2;Temp;Humidity;BMP_temperature;BMP_pressure;BME280_temperature;BME280_humidity;BME280_pressure;Samples;Min_cycle;Max_cycle;Signal;HPM_P1;HPM_P2
2022/07/22 00:01:12;;;;;;;16.75;12.60;;;;;;;25.76;53.74;100623.13;5054233;28;20037;-62
2022/07/22 00:03:38;;;;;;;14.45;12.77;;;;;;;25.74;53.67;100626.94;5053389;28;20048;-62
2022/07/22 00:06:04;;;;;;;14.65;12.30;;;;;;;25.66;54.07;100621.34;5054344;28;20033;-62
2022/07/22 00:08:29;;;;;;;14.63;12.55;;;;;;;25.60;54.42;100633.44;5054135;28;20028;-62
2022/07/22 00:10:54;;;;;;;17.20;12.65;;;;;;;25.55;54.52;100638.34;5053974;28;20087;-62
2022/07/22 00:13:20;;;;;;;14.07;12.20;;;;;;;25.42;54.80;100629.56;5086550;28;20388;-62
2022/07/22 00:15:45;;;;;;;13.43;11.93;;;;;;;25.41;54.76;100634.03;5054045;28;20063;-62
2022/07/22 00:18:11;;;;;;;15.25;12.35;;;;;;;25.40;54.92;100639.56;5054814;28;20091;-62
2022/07/22 00:20:36;;;;;;;13.05;11.73;;;;;;;25.53;54.54;100640.28;5054233;28;20080;-62
2022/07/22 00:23:02;;;;;;;16.92;12.48;;;;;;;25.66;54.13;100630.25;5052758;28;20083;-62
2022/07/22 00:25:28;;;;;;;17.75;13.25;;;;;;;25.68;54.04;100630.97;5053994;28;20091;-62
2022/07/22 00:27:54;;;;;;;13.35;11.95;;;;;;;25.65;54.30;100635.75;5053879;28;20039;-62
2022/07/22 00:30:20;;;;;;;20.55;13.77;;;;;;;25.60;54.25;100633.44;5052893;28;20029;-62
2022/07/22 00:32:45;;;;;;;14.55;12.00;;;;;;;25.50;54.68;100627.94;5052732;28;20128;-62
2022/07/22 00:35:10;;;;;;;19.45;14.25;;;;;;;25.39;54.93;100635.16;5069064;28;20164;-62
2022/07/22 00:37:36;;;;;;;16.33;13.10;;;;;;;25.33;55.23;100635.63;5053940;28;20033;-62
2022/07/22 00:40:02;;;;;;;14.82;13.20;;;;;;;25.28;55.43;100642.25;5053719;28;20040;-62
2022/07/22 00:42:28;;;;;;;14.88;12.68;;;;;;;25.19;55.68;100634.91;5053960;28;20029;-62
2022/07/22 00:44:53;;;;;;;16.85;12.60;;;;;;;25.20;55.66;100633.91;5052330;28;20051;-62
2022/07/22 00:47:19;;;;;;;14.25;12.35;;;;;;;25.20;55.60;100631.22;5053870;28;20029;-62
2022/07/22 00:49:44;;;;;;;13.43;12.10;;;;;;;25.20;55.59;100620.47;5053015;28;20033;-62
2022/07/22 00:52:10;;;;;;;13.75;12.20;;;;;;;25.28;55.26;100626.09;5053699;28;20388;-62
2022/07/22 00:54:36;;;;;;;15.27;12.63;;;;;;;25.33;55.42;100624.88;5035867;28;20059;-62
2022/07/22 00:57:02;;;;;;;16.30;13.43;;;;;;;25.34;55.13;100621.25;5053513;28;20044;-62
2022/07/22 00:59:28;;;;;;;14.80;12.27;;;;;;;25.31;55.28;100607.03;5051726;28;20033;-62
2022/07/22 01:01:53;;;;;;;12.93;11.73;;;;;;;25.37;54.96;100612.91;5053260;28;20032;-62
2022/07/22 01:04:19;;;;;;;17.20;13.07;;;;;;;25.42;55.04;100613.41;5052254;28;20033;-62
2022/07/22 01:06:44;;;;;;;12.27;10.98;;;;;;;25.47;55.00;100611.19;5053468;28;20380;-62
2022/07/22 01:09:11;;;;;;;16.60;13.85;;;;;;;25.48;54.98;100604.84;5053309;28;20036;-62
2022/07/22 01:11:37;;;;;;;17.63;14.23;;;;;;;25.44;55.03;100611.44;5035455;28;20048;-62
2022/07/22 01:14:02;;;;;;;14.30;12.25;;;;;;;25.41;54.86;100606.31;5085640;28;20397;-62
2022/07/22 01:16:28;;;;;;;13.95;11.50;;;;;;;25.35;55.26;100618.41;5053562;28;20056;-62
2022/07/22 01:18:54;;;;;;;15.90;13.07;;;;;;;25.25;55.56;100602.13;5053379;28;20120;-62
2022/07/22 01:21:19;;;;;;;18.10;14.13;;;;;;;25.20;55.43;100598.97;5053565;28;20078;-62
2022/07/22 01:23:45;;;;;;;15.48;13.10;;;;;;;25.21;55.65;100587.22;5052020;28;20044;-62
2022/07/22 01:26:11;;;;;;;16.55;12.60;;;;;;;25.15;55.62;100590.41;5053235;28;20114;-62
2022/07/22 01:28:36;;;;;;;17.38;13.00;;;;;;;25.10;55.94;100592.63;5053230;28;20037;-62
2022/07/22 01:31:02;;;;;;;14.77;13.20;;;;;;;25.01;55.94;100583.41;5053000;28;20044;-62
2022/07/22 01:33:28;;;;;;;15.30;13.70;;;;;;;25.03;56.01;100588.69;5051938;28;20052;-62
2022/07/22 01:35:53;;;;;;;14.80;13.07;;;;;;;24.98;56.05;100593.56;5053034;28;20037;-62
2022/07/22 01:38:19;;;;;;;24.42;14.02;;;;;;;24.91;56.45;100598.56;5051891;28;20112;-62
2022/07/22 01:40:44;;;;;;;15.27;13.77;;;;;;;24.71;56.79;100597.41;5052158;28;20052;-62
2022/07/22 01:43:10;;;;;;;16.10;13.85;;;;;;;24.66;56.85;100588.00;5053113;28;20107;-63
2022/07/22 01:45:35;;;;;;;15.73;13.63;;;;;;;24.65;56.97;100581.75;5053075;28;20340;-63
2022/07/22 01:48:02;;;;;;;14.40;12.90;;;;;;;24.72;56.82;100583.00;5053119;28;20102;-62
2022/07/22 01:50:27;;;;;;;15.88;12.90;;;;;;;24.83;56.36;100585.72;5035232;28;20124;-62
2022/07/22 01:52:53;;;;;;;17.83;15.57;;;;;;;24.80;56.32;100588.63;5052953;28;20117;-62
2022/07/22 01:55:18;;;;;;;15.30;13.50;;;;;;;24.67;56.62;100579.81;5053037;28;20033;-62
2022/07/22 01:57:44;;;;;;;16.80;13.77;;;;;;;24.55;56.78;100580.78;5052926;28;20040;-62
2022/07/22 02:00:11;;;;;;;16.40;13.98;;;;;;;24.59;56.78;100576.88;5053116;28;20039;-62
2022/07/22 02:02:39;;;;;;;15.10;13.38;;;;;;;24.55;56.90;100576.25;5035200;28;20082;-62
2022/07/22 02:05:05;;;;;;;15.43;12.95;;;;;;;24.58;56.54;100575.19;5034970;28;20029;-62
2022/07/22 02:07:32;;;;;;;16.77;14.55;;;;;;;24.58;56.66;100575.19;5035341;28;20460;-62
2022/07/22 02:09:58;;;;;;;20.00;15.48;;;;;;;24.58;56.63;100583.22;5051719;28;20025;-63
2022/07/22 02:12:24;;;;;;;16.38;13.00;;;;;;;24.59;56.38;100582.25;5054604;28;20071;-62
2022/07/22 02:14:49;;;;;;;14.32;12.82;;;;;;;24.60;56.35;100591.16;5056124;28;20053;-62
2022/07/22 02:17:15;;;;;;;14.60;13.10;;;;;;;24.50;56.33;100599.09;5056224;28;20477;-62
2022/07/22 02:19:41;;;;;;;15.13;13.52;;;;;;;24.40;56.87;100612.34;5055251;28;20063;-62
2022/07/22 02:22:06;;;;;;;17.60;13.35;;;;;;;24.21;57.15;100607.47;5071655;28;20115;-62
2022/07/22 02:24:32;;;;;;;18.63;13.43;;;;;;;24.15;57.34;100616.00;5056362;28;20029;-62
2022/07/22 02:26:57;;;;;;;14.27;12.77;;;;;;;24.08;57.27;100620.09;5056072;28;20056;-63
2022/07/22 02:29:23;;;;;;;14.35;12.55;;;;;;;24.09;57.46;100614.59;5054656;28;20036;-62
2022/07/22 02:31:48;;;;;;;15.07;12.38;;;;;;;24.07;57.38;100608.50;5056124;28;20029;-63
2022/07/22 02:34:14;;;;;;;15.05;13.30;;;;;;;24.08;57.47;100620.09;5056002;28;20110;-62
2022/07/22 02:36:39;;;;;;;14.02;11.93;;;;;;;24.06;57.46;100619.38;5055971;28;20068;-62
2022/07/22 02:39:05;;;;;;;17.30;12.70;;;;;;;24.00;57.48;100617.97;5055989;28;20085;-62
2022/07/22 02:41:31;;;;;;;16.73;12.88;;;;;;;23.95;57.68;100630.88;5055674;28;20388;-62
2022/07/22 02:43:56;;;;;;;17.30;12.20;;;;;;;24.01;57.22;100629.56;5088440;28;20143;-63
2022/07/22 02:46:23;;;;;;;14.38;11.60;;;;;;;24.05;57.13;100625.69;5056060;28;20135;-63
2022/07/22 02:48:49;;;;;;;16.50;12.02;;;;;;;24.02;57.06;100633.97;5054614;28;20056;-62
2022/07/22 02:51:14;;;;;;;13.70;11.27;;;;;;;24.23;56.26;100623.47;5054538;28;20412;-62
2022/07/22 02:53:40;;;;;;;17.67;12.30;;;;;;;24.21;56.36;100637.00;5055651;28;20043;-62
2022/07/22 02:56:05;;;;;;;12.68;11.27;;;;;;;24.27;56.00;100633.84;5055758;28;20508;-63
2022/07/22 02:58:31;;;;;;;15.73;11.75;;;;;;;24.30;55.99;100640.84;5088170;28;20392;-62
2022/07/22 03:00:56;;;;;;;14.55;11.00;;;;;;;24.11;56.21;100640.50;5055609;28;20078;-62
2022/07/22 03:03:22;;;;;;;14.40;10.40;;;;;;;24.13;56.32;100647.44;5054215;28;20132;-62
2022/07/22 03:05:47;;;;;;;12.45;11.10;;;;;;;24.13;56.11;100651.94;5055738;28;20041;-62
2022/07/22 03:08:13;;;;;;;11.75;9.95;;;;;;;24.18;55.98;100639.06;5055684;28;20468;-62
2022/07/22 03:10:41;;;;;;;12.65;10.15;;;;;;;24.31;55.61;100645.22;5055179;28;20113;-62
2022/07/22 03:13:06;;;;;;;13.35;11.23;;;;;;;24.11;56.34;100643.19;5054307;28;20249;-62
2022/07/22 03:15:31;;;;;;;13.07;11.52;;;;;;;24.10;56.37;100655.75;5055011;28;20073;-60
2022/07/22 03:17:57;;;;;;;14.50;10.85;;;;;;;24.18;56.11;100666.78;5087499;28;20071;-62
2022/07/22 03:20:22;;;;;;;14.15;11.18;;;;;;;24.11;56.29;100678.91;5055174;28;20028;-62
2022/07/22 03:22:48;;;;;;;16.10;11.32;;;;;;;24.13;56.09;100670.75;5055047;28;20111;-62
2022/07/22 03:25:13;;;;;;;14.00;10.95;;;;;;;24.09;56.29;100670.09;5055422;28;20037;-62
2022/07/22 03:27:38;;;;;;;15.30;12.10;;;;;;;24.11;56.46;100659.28;5087061;28;20440;-62
2022/07/22 03:30:05;;;;;;;13.48;11.43;;;;;;;24.19;56.15;100671.16;5054973;28;20031;-62
2022/07/22 03:32:31;;;;;;;11.82;10.32;;;;;;;24.33;55.79;100670.97;5054750;28;20116;-60
2022/07/22 03:34:56;;;;;;;15.60;11.65;;;;;;;24.47;55.46;100669.13;5054992;28;20124;-62
2022/07/22 03:37:22;;;;;;;12.32;10.32;;;;;;;24.54;55.32;100668.56;5053581;28;20033;-62
2022/07/22 03:39:47;;;;;;;11.95;10.18;;;;;;;24.60;55.05;100669.91;5054886;28;20427;-62
2022/07/22 03:42:13;;;;;;;12.82;10.35;;;;;;;24.67;54.86;100673.00;5054630;28;20036;-63
2022/07/22 03:44:40;;;;;;;12.52;11.23;;;;;;;24.71;54.93;100672.66;5054583;28;20474;-62
2022/07/22 03:47:06;;;;;;;14.02;11.48;;;;;;;24.79;54.87;100667.53;5054740;28;20060;-63
2022/07/22 03:49:31;;;;;;;14.05;10.90;;;;;;;24.96;54.21;100666.22;5054521;28;20385;-62
2022/07/22 03:51:57;;;;;;;12.68;10.00;;;;;;;25.14;53.86;100661.31;5054582;28;20032;-63
2022/07/22 03:54:23;;;;;;;13.27;10.25;;;;;;;25.24;53.56;100654.22;5053273;28;20029;-62
2022/07/22 03:56:48;;;;;;;12.50;10.18;;;;;;;25.34;53.30;100651.69;5054164;28;20031;-62
2022/07/22 03:59:17;;;;;;;12.23;10.63;;;;;;;25.38;53.07;100646.91;5053193;28;20423;-62
2022/07/22 04:01:42;;;;;;;11.50;9.40;;;;;;;25.43;52.85;100640.19;5054543;28;20087;-62
2022/07/22 04:04:08;;;;;;;18.13;11.05;;;;;;;25.53;52.53;100637.59;5053075;28;20029;-62
2022/07/22 04:06:33;;;;;;;18.77;10.20;;;;;;;25.56;52.62;100640.03;5053102;28;20045;-62
2022/07/22 04:08:59;;;;;;;13.60;10.27;;;;;;;25.54;52.66;100633.94;5052970;28;20041;-63
2022/07/22 04:11:24;;;;;;;12.43;9.80;;;;;;;25.54;52.57;100632.09;5053762;28;20033;-62
2022/07/22 04:13:50;;;;;;;13.35;10.05;;;;;;;25.58;52.48;100635.41;5054143;28;20041;-62
2022/07/22 04:16:15;;;;;;;12.52;10.25;;;;;;;25.67;52.36;100641.88;5053847;28;20086;-62
2022/07/22 04:18:41;;;;;;;11.43;9.52;;;;;;;25.86;51.50;100633.22;5086163;28;20033;-63
2022/07/22 04:21:06;;;;;;;14.18;10.65;;;;;;;26.01;51.42;100637.31;5054109;28;20392;-62
2022/07/22 04:23:32;;;;;;;11.48;9.60;;;;;;;26.28;50.96;100635.03;5054011;28;20029;-62
2022/07/22 04:25:58;;;;;;;11.07;9.05;;;;;;;26.49;50.35;100634.22;5052171;28;20036;-63
2022/07/22 04:28:23;;;;;;;12.38;9.40;;;;;;;26.64;49.93;100630.25;5053590;28;20039;-63
2022/07/22 04:30:51;;;;;;;16.05;10.30;;;;;;;26.74;49.79;100620.41;5053901;28;20029;-62
2022/07/22 04:33:17;;;;;;;14.93;9.55;;;;;;;26.76;49.61;100628.34;5052737;28;20049;-63
2022/07/22 04:35:43;;;;;;;14.75;10.73;;;;;;;26.77;49.57;100633.63;5053815;28;20040;-62
2022/07/22 04:38:09;;;;;;;12.50;9.50;;;;;;;26.91;49.30;100642.34;5052573;28;20480;-60
2022/07/22 04:40:34;;;;;;;12.38;9.20;;;;;;;27.01;48.96;100637.88;5053933;28;20044;-61
2022/07/22 04:43:00;;;;;;;10.93;8.63;;;;;;;27.09;49.01;100637.19;5053413;28;20037;-62
2022/07/22 04:45:25;;;;;;;13.57;9.95;;;;;;;27.05;48.94;100644.72;5053765;28;20044;-62
2022/07/22 04:47:51;;;;;;;12.82;8.73;;;;;;;27.02;49.09;100639.59;5053730;28;20083;-60
2022/07/22 04:50:16;;;;;;;14.73;10.13;;;;;;;26.97;49.24;100633.72;5053679;28;20041;-61
2022/07/22 04:52:41;;;;;;;12.70;10.25;;;;;;;27.02;49.21;100636.91;5085368;28;20029;-61
2022/07/22 04:55:07;;;;;;;13.85;9.40;;;;;;;27.10;49.09;100642.50;5053087;28;20040;-61
2022/07/22 04:57:32;;;;;;;12.70;9.93;;;;;;;27.19;48.86;100647.09;5053364;28;20391;-62
2022/07/22 04:59:58;;;;;;;13.98;9.95;;;;;;;27.45;48.28;100646.66;5053543;28;20037;-62
2022/07/22 05:02:23;;;;;;;12.77;9.93;;;;;;;27.55;48.11;100634.03;5053744;28;20135;-62
2022/07/22 05:04:51;;;;;;;13.15;10.07;;;;;;;27.72;48.05;100632.53;5085732;28;20117;-61
2022/07/22 05:07:17;;;;;;;11.52;9.38;;;;;;;27.93;47.46;100646.84;5051967;28;20036;-62
2022/07/22 05:09:42;;;;;;;11.23;8.63;;;;;;;28.23;46.62;100669.34;5052749;28;20082;-62
2022/07/22 05:12:08;;;;;;;11.02;8.40;;;;;;;28.30;46.63;100692.13;5053056;28;20064;-62
2022/07/22 05:14:33;;;;;;;11.07;8.63;;;;;;;28.33;45.99;100674.78;5053359;28;20025;-62
2022/07/22 05:16:59;;;;;;;14.98;11.32;;;;;;;28.03;47.17;100627.94;5053064;28;20025;-62
2022/07/22 05:19:24;;;;;;;14.93;11.02;;;;;;;27.36;49.37;100577.31;5053061;28;20061;-62
2022/07/22 05:21:49;;;;;;;24.00;11.10;;;;;;;27.08;52.39;100603.97;5053345;28;20029;-62
2022/07/22 05:24:15;;;;;;;16.08;11.55;;;;;;;26.73;53.11;100650.16;5053098;28;20037;-61
2022/07/22 05:26:40;;;;;;;13.40;9.13;;;;;;;26.69;52.27;100641.50;5068799;28;20105;-62
2022/07/22 05:29:06;;;;;;;14.57;10.15;;;;;;;26.55;52.92;100639.13;5085812;28;20032;-62
2022/07/22 05:31:31;;;;;;;18.73;11.13;;;;;;;26.51;53.09;100632.28;5053018;28;20072;-61
2022/07/22 05:33:57;;;;;;;13.65;10.68;;;;;;;26.43;52.96;100632.03;5053001;28;20477;-61
2022/07/22 05:36:22;;;;;;;14.15;10.00;;;;;;;26.57;52.67;100637.16;5051641;28;20029;-62
2022/07/22 05:38:48;;;;;;;11.70;9.63;;;;;;;26.80;52.18;100634.31;5053110;28;20032;-61
2022/07/22 05:41:13;;;;;;;15.90;8.77;;;;;;;27.00;51.51;100639.69;5053358;28;20503;-62
2022/07/22 05:43:39;;;;;;;12.80;9.50;;;;;;;27.20;51.16;100626.38;5052961;28;20429;-62
2022/07/22 05:46:05;;;;;;;15.07;9.70;;;;;;;27.39;51.21;100622.91;5055738;28;20075;-62
2022/07/22 05:48:30;;;;;;;13.13;9.40;;;;;;;27.56;51.41;100621.41;5055391;28;20025;-62
2022/07/22 05:50:56;;;;;;;17.92;10.07;;;;;;;27.53;51.51;100633.34;5056873;28;20079;-62
2022/07/22 05:53:21;;;;;;;12.68;8.40;;;;;;;27.47;51.74;100637.41;5056753;28;20029;-62
2022/07/22 05:55:47;;;;;;;11.73;7.75;;;;;;;27.56;51.28;100633.03;5072561;28;20388;-62
2022/07/22 05:58:12;;;;;;;9.40;7.88;;;;;;;27.59;51.12;100632.78;5056349;28;20397;-62
2022/07/22 06:00:39;;;;;;;10.25;7.43;;;;;;;27.68;51.22;100639.19;5056470;28;20029;-62
2022/07/22 06:03:05;;;;;;;11.93;8.30;;;;;;;27.67;51.29;100654.53;5056399;28;20044;-62
2022/07/22 06:05:31;;;;;;;11.45;8.80;;;;;;;27.50;52.40;100655.19;5055280;28;20037;-62
2022/07/22 06:07:56;;;;;;;12.45;9.10;;;;;;;27.64;51.94;100646.72;5055258;28;20120;-62
2022/07/22 06:10:22;;;;;;;11.52;8.18;;;;;;;27.78;51.70;100647.38;5056093;28;20037;-62
2022/07/22 06:12:47;;;;;;;12.27;9.02;;;;;;;27.95;51.58;100649.41;5056806;28;20040;-62
2022/07/22 06:15:13;;;;;;;10.25;8.75;;;;;;;27.96;51.54;100643.84;5056146;28;20112;-62
2022/07/22 06:17:38;;;;;;;12.02;8.25;;;;;;;27.94;51.69;100648.53;5056326;28;20445;-62
2022/07/22 06:20:04;;;;;;;10.57;8.30;;;;;;;27.89;51.31;100656.22;5056331;28;20029;-62
2022/07/22 06:22:30;;;;;;;13.00;8.20;;;;;;;27.79;52.36;100666.13;5054924;28;20028;-62
2022/07/22 06:24:55;;;;;;;12.88;9.30;;;;;;;27.69;53.26;100666.06;5055758;28;20028;-62
2022/07/22 06:27:21;;;;;;;11.90;9.57;;;;;;;27.51;54.16;100675.78;5055844;28;20037;-62
2022/07/22 06:29:46;;;;;;;13.63;11.30;;;;;;;27.21;56.05;100669.41;5088447;28;20044;-62
2022/07/22 06:32:11;;;;;;;16.52;11.68;;;;;;;26.92;56.74;100657.53;5054949;28;20041;-62
2022/07/22 06:34:37;;;;;;;12.90;10.65;;;;;;;26.67;57.14;100648.00;5054572;28;20433;-62
2022/07/22 06:37:02;;;;;;;16.13;10.70;;;;;;;26.62;57.44;100651.09;5054498;28;20440;-62
2022/07/22 06:39:28;;;;;;;13.88;9.98;;;;;;;26.62;57.59;100652.94;5054182;28;20521;-62
2022/07/22 06:41:53;;;;;;;13.35;11.48;;;;;;;26.69;57.76;100644.19;5055526;28;20045;-62
2022/07/22 06:44:19;;;;;;;14.90;11.98;;;;;;;26.64;58.09;100646.41;5055762;28;20037;-62
2022/07/22 06:46:44;;;;;;;13.18;11.45;;;;;;;26.70;58.31;100656.69;5055688;28;20116;-62
2022/07/22 06:49:10;;;;;;;20.42;12.32;;;;;;;26.71;58.70;100662.94;5055901;28;20037;-62
2022/07/22 06:51:35;;;;;;;15.95;12.65;;;;;;;26.66;58.73;100668.72;5071183;28;20033;-62
2022/07/22 06:54:01;;;;;;;14.48;11.25;;;;;;;26.66;58.71;100654.38;5055486;28;20025;-62
2022/07/22 06:56:26;;;;;;;15.65;11.80;;;;;;;26.52;59.18;100659.06;5054835;28;20059;-62
2022/07/22 06:58:52;;;;;;;13.00;11.48;;;;;;;26.35;59.78;100683.00;5054310;28;20060;-62
2022/07/22 07:01:17;;;;;;;13.73;10.75;;;;;;;26.32;59.53;100720.97;5054372;28;20044;-62
2022/07/22 07:03:43;;;;;;;13.75;11.90;;;;;;;26.41;59.70;100736.34;5054543;28;20546;-62
2022/07/22 07:06:13;;;;;;;16.17;11.63;;;;;;;26.51;59.28;100758.91;5054227;28;20100;-62
2022/07/22 07:08:39;;;;;;;15.35;11.82;;;;;;;26.61;59.22;100772.47;5055564;28;20033;-62
2022/07/22 07:11:05;;;;;;;12.90;10.48;;;;;;;26.62;58.44;100788.53;5054058;28;20380;-62
2022/07/22 07:13:31;;;;;;;11.90;10.68;;;;;;;26.68;58.09;100771.81;5055211;28;20025;-62
2022/07/22 07:15:57;;;;;;;13.65;11.75;;;;;;;26.74;58.45;100760.56;5037411;28;20029;-62
2022/07/22 07:18:22;;;;;;;17.52;15.60;;;;;;;26.61;59.17;100754.47;5054125;28;20448;-62
2022/07/22 07:20:48;;;;;;;18.50;15.05;;;;;;;26.25;60.11;100748.41;5055181;28;20516;-62
2022/07/22 07:23:13;;;;;;;14.68;12.98;;;;;;;26.05;60.44;100757.22;5054309;28;20369;-62
2022/07/22 07:25:40;;;;;;;18.48;14.77;;;;;;;26.04;60.94;100759.06;5055149;28;20465;-62
2022/07/22 07:28:05;;;;;;;21.63;15.98;;;;;;;25.79;61.85;100756.63;5055205;28;20037;-62
2022/07/22 07:30:31;;;;;;;16.73;14.98;;;;;;;25.94;61.33;100746.50;5055094;28;20055;-61
2022/07/22 07:32:56;;;;;;;17.70;14.10;;;;;;;26.07;61.06;100760.66;5070091;28;20057;-62
2022/07/22 07:35:24;;;;;;;16.00;13.30;;;;;;;26.31;59.97;100756.97;5055115;28;20040;-62
2022/07/22 07:37:50;;;;;;;17.55;13.88;;;;;;;26.61;59.46;100764.38;5054913;28;20029;-62
2022/07/22 07:40:15;;;;;;;18.17;14.52;;;;;;;26.80;58.69;100761.00;5054940;28;20045;-62
2022/07/22 07:42:41;;;;;;;19.80;16.05;;;;;;;26.99;58.32;100761.19;5054857;28;20061;-62
2022/07/22 07:45:06;;;;;;;19.00;16.20;;;;;;;27.08;58.13;100746.06;5054781;28;20041;-62
2022/07/22 07:47:32;;;;;;;17.67;15.32;;;;;;;27.17;57.68;100735.38;5054743;28;20036;-62
2022/07/22 07:50:00;;;;;;;18.27;15.00;;;;;;;27.28;57.33;100731.75;5054623;28;20059;-62
2022/07/22 07:52:26;;;;;;;17.95;15.95;;;;;;;27.22;57.29;100732.28;5053396;28;20032;-62
2022/07/22 07:54:52;;;;;;;18.30;16.30;;;;;;;27.12;57.51;100713.31;5053501;28;20033;-62
2022/07/22 07:57:18;;;;;;;19.20;17.05;;;;;;;27.09;57.58;100688.44;5053080;28;20123;-62
2022/07/22 07:59:46;;;;;;;18.92;16.92;;;;;;;26.99;58.18;100672.19;5054475;28;20124;-62
2022/07/22 08:02:12;;;;;;;23.25;18.30;;;;;;;26.81;58.84;100654.91;5054480;28;20029;-61
2022/07/22 08:04:37;;;;;;;20.20;18.02;;;;;;;26.61;59.44;100654.78;5054340;28;20064;-62
2022/07/22 08:07:05;;;;;;;22.42;18.52;;;;;;;26.51;60.05;100652.00;5053210;28;20188;-62
2022/07/22 08:09:30;;;;;;;18.67;16.13;;;;;;;26.61;59.87;100656.59;5069476;28;20029;-61
2022/07/22 08:11:56;;;;;;;18.95;16.95;;;;;;;26.56;59.79;100665.06;5052990;28;20140;-62
2022/07/22 08:14:21;;;;;;;19.10;16.65;;;;;;;26.76;59.54;100658.00;5086790;28;20036;-62
2022/07/22 08:16:47;;;;;;;21.40;18.52;;;;;;;26.97;59.21;100644.50;5054170;28;20141;-62
2022/07/22 08:19:12;;;;;;;21.13;17.20;;;;;;;27.19;58.54;100644.41;5086465;28;20033;-62
2022/07/22 08:21:37;;;;;;;18.90;16.90;;;;;;;27.10;58.82;100639.81;5053935;28;20029;-62
2022/07/22 08:24:03;;;;;;;18.17;15.55;;;;;;;27.51;57.64;100652.34;5053890;28;20036;-62
2022/07/22 08:26:28;;;;;;;21.10;16.88;;;;;;;27.75;57.41;100638.53;5054176;28;20048;-62
2022/07/22 08:28:54;;;;;;;20.13;16.65;;;;;;;27.88;56.85;100613.13;5054145;28;20499;-62
2022/07/22 08:31:20;;;;;;;19.40;17.20;;;;;;;28.02;56.61;100614.59;5053953;28;20037;-62
2022/07/22 08:33:45;;;;;;;21.50;18.40;;;;;;;28.29;56.10;100609.38;5053469;28;20416;-62
2022/07/22 08:36:10;;;;;;;21.38;16.90;;;;;;;28.28;56.23;100601.38;5086218;28;20087;-61
2022/07/22 08:38:37;;;;;;;18.40;16.23;;;;;;;28.27;56.32;100602.38;5054170;28;20122;-62
2022/07/22 08:41:04;;;;;;;17.73;15.80;;;;;;;28.03;56.66;100625.25;5053599;28;20431;-61
2022/07/22 08:43:34;;;;;;;16.08;13.85;;;;;;;28.28;55.63;100639.19;5052844;28;20032;-63
2022/07/22 08:45:59;;;;;;;13.90;12.45;;;;;;;28.50;54.81;100655.19;5052475;28;20082;-62
2022/07/22 08:48:25;;;;;;;20.58;14.35;;;;;;;28.69;54.53;100665.16;5053510;28;20029;-63
2022/07/22 08:50:50;;;;;;;15.63;11.50;;;;;;;28.70;53.67;100677.66;5053425;28;20086;-62
2022/07/22 08:53:16;;;;;;;16.02;12.85;;;;;;;28.62;53.56;100666.72;5052618;28;20029;-63
2022/07/22 08:55:43;;;;;;;17.15;11.80;;;;;;;28.75;53.43;100677.22;5053563;28;20041;-62
2022/07/22 08:58:08;;;;;;;16.00;11.48;;;;;;;28.92;52.52;100684.59;5052280;28;20132;-62
2022/07/22 09:00:34;;;;;;;18.55;10.77;;;;;;;28.93;52.43;100680.91;5053924;28;20127;-63
2022/07/22 09:03:00;;;;;;;13.45;10.15;;;;;;;28.96;52.33;100677.91;5052146;28;20052;-62
2022/07/22 09:05:32;;;;;;;11.35;10.25;;;;;;;29.00;51.45;100678.50;5052224;28;20205;-63
2022/07/22 09:07:59;;;;;;;12.45;10.05;;;;;;;29.10;51.46;100672.06;5068976;28;20040;-63
2022/07/22 09:10:31;;;;;;;10.50;9.40;;;;;;;29.24;51.33;100676.16;5052066;28;20033;-63
2022/07/22 09:12:59;;;;;;;;;;;;;;;29.40;49.69;100675.53;5053826;28;20412;-62
2022/07/22 09:15:30;;;;;;;10.25;8.80;;;;;;;29.52;50.19;100668.94;5051905;28;19958;-63
2022/07/22 09:17:57;;;;;;;10.98;9.73;;;;;;;29.58;49.53;100678.38;5053462;28;20469;-63
2022/07/22 09:20:24;;;;;;;12.60;10.43;;;;;;;29.64;49.59;100680.47;5055075;28;20070;-62
2022/07/22 09:22:50;;;;;;;11.98;9.38;;;;;;;29.92;48.90;100679.50;5073151;28;20120;-63
2022/07/22 09:25:30;;;;;;;13.25;9.07;;;;;;;30.14;47.80;100678.19;5056191;28;20024;-62
2022/07/22 09:28:05;;;;;;;9.63;7.50;;;;;;;30.25;45.54;100679.03;5056105;28;20025;-63
2022/07/22 09:30:30;;;;;;;11.90;7.38;;;;;;;30.35;46.55;100683.34;5056270;28;20025;-63
2022/07/22 09:32:56;;;;;;;7.85;6.57;;;;;;;30.46;45.99;100679.56;5057098;28;20500;-63
2022/07/22 09:35:24;;;;;;;10.70;7.70;;;;;;;30.47;45.93;100678.56;5055723;28;20118;-63
2022/07/22 09:38:01;;;;;;;12.15;8.25;;;;;;;30.65;45.22;100676.72;5055914;28;20040;-63
2022/07/22 09:40:29;;;;;;;8.07;6.90;;;;;;;30.67;44.78;100677.38;5057127;28;20032;-63
2022/07/22 09:42:57;;;;;;;9.40;7.10;;;;;;;30.86;44.50;100686.41;5055843;28;20025;-63
2022/07/22 09:45:25;;;;;;;8.13;5.50;;;;;;;30.81;44.25;100683.31;5056126;28;20435;-63
2022/07/22 09:47:51;;;;;;;10.00;6.47;;;;;;;30.81;44.31;100688.75;5055901;28;20028;-63
2022/07/22 09:50:22;;;;;;;8.75;6.97;;;;;;;30.75;44.24;100686.66;5055713;28;20033;-63
2022/07/22 09:52:49;;;;;;;7.40;6.38;;;;;;;30.87;44.61;100693.53;5056973;28;20063;-63
2022/07/22 09:55:16;;;;;;;7.15;6.40;;;;;;;30.99;44.31;100684.13;5072944;28;20029;-63
2022/07/22 09:57:42;;;;;;;7.45;6.72;;;;;;;31.12;44.50;100695.44;5055432;28;20072;-63
2022/07/22 10:00:09;;;;;;;9.68;7.00;;;;;;;30.78;44.89;100694.47;5072183;28;20072;-63
2022/07/22 10:02:40;;;;;;;11.38;7.25;;;;;;;30.93;44.07;100687.47;5055435;28;20033;-63
2022/07/22 10:05:06;;;;;;;7.65;6.85;;;;;;;31.13;44.33;100697.13;5055447;28;20031;-63
2022/07/22 10:07:32;;;;;;;8.48;7.47;;;;;;;31.34;43.80;100687.78;5055360;28;20036;-63
2022/07/22 10:09:59;;;;;;;11.00;9.05;;;;;;;31.32;44.00;100695.22;5056337;28;20491;-63
2022/07/22 10:12:26;;;;;;;13.40;9.57;;;;;;;31.15;44.14;100697.81;5038609;28;20037;-63
2022/07/22 10:14:52;;;;;;;9.88;8.40;;;;;;;31.23;44.19;100693.44;5055248;28;20033;-63
2022/07/22 10:17:18;;;;;;;9.68;8.55;;;;;;;31.36;44.00;100691.22;5054826;28;20136;-63
2022/07/22 10:19:43;;;;;;;11.90;9.57;;;;;;;31.45;43.37;100692.09;5054890;28;20025;-63
2022/07/22 10:22:44;;;;;;;10.32;9.13;;;;;;;31.52;43.29;100694.00;5055895;28;20067;-63
2022/07/22 10:25:12;;;;;;;8.23;7.43;;;;;;;31.85;42.70;100694.19;5055033;28;20032;-63
2022/07/22 10:27:50;;;;;;;8.98;8.05;;;;;;;32.10;42.75;100693.25;5071716;28;20124;-63
2022/07/22 10:30:27;;;;;;;10.60;9.50;;;;;;;32.35;41.91;100691.44;5054852;28;20097;-63
2022/07/22 10:33:06;;;;;;;10.93;9.02;;;;;;;32.40;41.55;100682.84;5053829;28;20536;-63
2022/07/22 10:35:36;;;;;;;8.90;8.00;;;;;;;32.71;41.63;100684.88;5054517;28;20029;-63
2022/07/22 10:38:06;;;;;;;9.70;8.70;;;;;;;32.85;41.07;100678.75;5056041;28;20358;-63
2022/07/22 10:40:46;;;;;;;11.85;9.95;;;;;;;32.72;40.31;100681.16;5054799;28;20464;-63
2022/07/22 10:43:14;;;;;;;10.80;9.70;;;;;;;32.81;40.61;100674.69;5071035;28;20032;-63
2022/07/22 10:45:46;;;;;;;9.68;8.68;;;;;;;33.15;40.18;100670.94;5055832;28;20457;-63
2022/07/22 10:48:55;;;;;;;8.95;8.13;;;;;;;33.46;39.16;100663.72;5054452;28;20116;-63
2022/07/22 10:51:22;;;;;;;8.38;7.57;;;;;;;33.75;38.99;100662.25;5054564;28;20061;-63
2022/07/22 10:54:01;;;;;;;8.13;7.30;;;;;;;33.90;37.95;100654.19;5054563;28;20495;-63
2022/07/22 10:56:35;;;;;;;8.40;7.60;;;;;;;33.98;38.29;100657.75;5053821;28;20473;-63
2022/07/22 10:59:19;;;;;;;7.32;6.47;;;;;;;33.97;38.24;100652.44;5054306;28;20097;-63
2022/07/22 11:01:52;;;;;;;11.57;7.75;;;;;;;33.97;37.93;100650.59;5086580;28;20120;-63
2022/07/22 11:04:23;;;;;;;10.73;8.05;;;;;;;33.98;38.03;100656.91;5055501;28;20067;-63
2022/07/22 11:06:54;;;;;;;9.40;8.43;;;;;;;33.81;37.50;100653.38;5055422;28;20393;-63
2022/07/22 11:09:23;;;;;;;10.25;7.53;;;;;;;33.88;38.18;100650.81;5055354;28;20025;-63